Time;durP1;ratioP1;P1;durP2;ratioP2;P2;SDS_P1;SDS_P2;PMS_P1;PMS_P2;Temp;Humidity;BMP_temperature;BMP_pressure;BME280_temperature;BME280_humidity;BME280_pressure;Samples;Min_cycle;Max_cycle;Signal;HPM_P1;HPM_P2
2023/01/16 00:01:57;;;;;;;88.33;23.53;;;;;;;;;;4976316;28;20213;-45
2023/01/16 00:04:24;;;;;;;38.60;14.30;;;;;;;;;;4976047;28;20213;-45
2023/01/16 00:06:51;;;;;;;49.13;16.30;;;;;;;;;;4976256;28;20223;-45
2023/01/16 00:09:18;;;;;;;24.47;11.33;;;;;;;;;;4976263;28;20203;-45
2023/01/16 00:11:46;;;;;;;35.43;13.07;;;;;;;;;;4976328;28;20203;-45
2023/01/16 00:14:13;;;;;;;35.40;15.10;;;;;;;;;;4976530;28;20234;-46
2023/01/16 00:16:40;;;;;;;33.00;13.60;;;;;;;;;;4976069;28;20289;-45
2023/01/16 00:19:07;;;;;;;36.70;15.23;;;;;;;;;;4976103;28;20232;-45
2023/01/16 00:21:34;;;;;;;23.63;11.17;;;;;;;;;;4976676;28;20211;-46
2023/01/16 00:24:02;;;;;;;32.30;13.50;;;;;;;;;;4980698;28;20207;-45
2023/01/16 00:26:29;;;;;;;40.23;14.47;;;;;;;;;;4980075;28;20241;-45
2023/01/16 00:28:57;;;;;;;20.43;9.20;;;;;;;;;;4980219;28;20198;-45
2023/01/16 00:31:27;;;;;;;40.03;13.77;;;;;;;;;;4979996;28;20202;-45
2023/01/16 00:33:55;;;;;;;33.80;12.97;;;;;;;;;;4979940;28;20206;-45
2023/01/16 00:36:22;;;;;;;32.03;11.53;;;;;;;;;;4979832;28;20285;-45
2023/01/16 00:38:49;;;;;;;21.23;8.63;;;;;;;;;;4979572;28;20230;-45
2023/01/16 00:41:16;;;;;;;23.00;10.47;;;;;;;;;;4979873;28;20218;-45
2023/01/16 00:43:43;;;;;;;24.40;10.50;;;;;;;;;;4979643;28;20209;-45
2023/01/16 00:46:10;;;;;;;36.47;12.60;;;;;;;;;;4979648;28;20214;-46
2023/01/16 00:48:38;;;;;;;58.83;18.93;;;;;;;;;;4980212;28;20221;-46
2023/01/16 00:51:05;;;;;;;21.37;10.27;;;;;;;;;;4980047;28;20276;-46
2023/01/16 00:53:32;;;;;;;29.73;10.97;;;;;;;;;;4979624;28;20241;-45
2023/01/16 00:55:59;;;;;;;25.53;10.23;;;;;;;;;;4979289;28;20648;-45
2023/01/16 00:58:26;;;;;;;23.73;9.10;;;;;;;;;;4979510;28;20203;-45
2023/01/16 01:00:54;;;;;;;26.00;9.83;;;;;;;;;;4979182;28;20285;-45
2023/01/16 01:03:21;;;;;;;34.47;11.73;;;;;;;;;;4979455;28;20229;-45
2023/01/16 01:05:48;;;;;;;14.27;6.83;;;;;;;;;;4979871;28;20214;-45
2023/01/16 01:08:15;;;;;;;24.53;9.87;;;;;;;;;;4979605;28;20230;-46
2023/01/16 01:10:42;;;;;;;15.73;7.40;;;;;;;;;;4979144;28;20207;-45
2023/01/16 01:13:09;;;;;;;37.33;13.27;;;;;;;;;;4979057;28;20195;-45
2023/01/16 01:15:37;;;;;;;26.80;11.43;;;;;;;;;;4978815;28;20226;-45
2023/01/16 01:18:04;;;;;;;17.13;7.80;;;;;;;;;;4979009;28;20198;-46
2023/01/16 01:20:31;;;;;;;13.63;7.00;;;;;;;;;;4979347;28;20226;-45
2023/01/16 01:22:58;;;;;;;31.03;9.90;;;;;;;;;;4978960;28;20211;-45
2023/01/16 01:25:26;;;;;;;18.13;7.50;;;;;;;;;;4978796;28;20294;-45
2023/01/16 01:27:53;;;;;;;27.57;10.33;;;;;;;;;;4978960;28;20206;-45
2023/01/16 01:30:20;;;;;;;17.43;7.03;;;;;;;;;;4979313;28;20217;-45
2023/01/16 01:32:47;;;;;;;25.20;9.67;;;;;;;;;;4978417;28;20294;-45
2023/01/16 01:35:17;;;;;;;15.83;7.77;;;;;;;;;;4978606;28;20214;-45
2023/01/16 01:37:44;;;;;;;31.77;10.90;;;;;;;;;;4978795;28;20222;-45
2023/01/16 01:40:11;;;;;;;68.30;21.90;;;;;;;;;;4977638;28;20556;-45
2023/01/16 01:42:42;;;;;;;33.53;14.83;;;;;;;;;;4959190;28;20207;-45
2023/01/16 01:45:24;;;;;;;16.00;9.00;;;;;;;;;;4959188;28;20192;-45
2023/01/16 01:48:00;;;;;;;13.13;7.00;;;;;;;;;;4959505;28;20211;-45
2023/01/16 01:50:31;;;;;;;26.37;10.87;;;;;;;;;;4959069;28;20198;-45
2023/01/16 01:52:59;;;;;;;14.93;7.10;;;;;;;;;;4959299;28;20196;-45
2023/01/16 01:55:27;;;;;;;28.17;10.47;;;;;;;;;;4958553;29;20215;-45
2023/01/16 01:57:58;;;;;;;15.90;7.40;;;;;;;;;;4958040;29;20246;-45
2023/01/16 02:00:27;;;;;;;20.00;8.83;;;;;;;;;;4958157;29;20204;-45
2023/01/16 02:03:08;;;;;;;31.37;14.90;;;;;;;;;;4958419;29;20278;-45
2023/01/16 02:05:38;;;;;;;23.50;11.03;;;;;;;;;;4959041;28;20203;-45
2023/01/16 02:08:06;;;;;;;142.47;39.43;;;;;;;;;;4958292;29;20278;-45
2023/01/16 02:11:02;;;;;;;15.87;10.30;;;;;;;;;;4958934;28;20219;-45
2023/01/16 02:13:29;;;;;;;21.63;11.10;;;;;;;;;;4956112;29;20203;-47
2023/01/16 02:21:31;;;;;;;17.80;8.97;;;;;;;;;;4958925;28;20192;-46
2023/01/16 02:24:23;;;;;;;21.17;10.37;;;;;;;;;;4958670;28;20210;-45
2023/01/16 02:27:00;;;;;;;17.40;9.10;;;;;;;;;;4959290;28;20227;-45
2023/01/16 02:30:05;;;;;;;13.63;7.30;;;;;;;;;;4958038;29;20198;-45
2023/01/16 02:32:35;;;;;;;14.17;8.33;;;;;;;;;;4958402;28;20668;-45
2023/01/16 02:35:15;;;;;;;14.30;6.53;;;;;;;;;;4958230;28;20231;-46
2023/01/16 02:37:49;;;;;;;19.37;10.50;;;;;;;;;;4957874;29;20215;-46
2023/01/16 02:40:39;;;;;;;16.13;7.93;;;;;;;;;;4957667;29;20212;-45
2023/01/16 02:43:17;;;;;;;15.63;7.63;;;;;;;;;;4957916;28;20207;-45
2023/01/16 02:45:53;;;;;;;14.13;6.23;;;;;;;;;;4957990;28;20215;-45
2023/01/16 02:48:27;;;;;;;15.77;6.57;;;;;;;;;;4958094;28;20230;-45
2023/01/16 02:51:11;;;;;;;12.43;6.73;;;;;;;;;;4958086;28;20226;-45
2023/01/16 02:53:46;;;;;;;13.37;6.77;;;;;;;;;;4957986;29;20199;-45
2023/01/16 02:56:19;;;;;;;11.90;7.30;;;;;;;;;;4956871;29;20585;-45
2023/01/16 02:58:47;;;;;;;23.50;9.60;;;;;;;;;;4957587;29;20211;-45
2023/01/16 03:01:17;;;;;;;16.87;7.90;;;;;;;;;;4957024;29;20204;-45
2023/01/16 03:03:53;;;;;;;16.30;6.93;;;;;;;;;;4957989;28;20207;-45
2023/01/16 03:06:20;;;;;;;15.53;11.67;;;;;;;;;;4957722;28;20221;-45
2023/01/16 03:08:50;;;;;;;15.43;8.87;;;;;;;;;;4958403;28;20211;-45
2023/01/16 03:11:22;;;;;;;16.87;8.67;;;;;;;;;;4957770;28;20203;-45
2023/01/16 03:14:26;;;;;;;10.63;6.47;;;;;;;;;;4956896;29;20199;-45
2023/01/16 03:17:12;;;;;;;15.33;6.97;;;;;;;;;;4956742;29;20234;-45
2023/01/16 03:19:48;;;;;;;10.87;6.00;;;;;;;;;;4957403;28;20541;-45
2023/01/16 03:22:18;;;;;;;17.43;8.00;;;;;;;;;;4957381;28;20628;-45
2023/01/16 03:25:24;;;;;;;11.00;5.90;;;;;;;;;;4957597;28;20200;-45
2023/01/16 03:28:06;;;;;;;19.73;8.67;;;;;;;;;;4954524;29;20211;-45
2023/01/16 03:30:59;;;;;;;13.80;6.77;;;;;;;;;;4956727;29;20218;-45
2023/01/16 03:33:33;;;;;;;21.33;9.60;;;;;;;;;;4958085;28;20266;-45
2023/01/16 03:36:21;;;;;;;10.27;7.33;;;;;;;;;;4957770;28;20210;-45
2023/01/16 03:38:50;;;;;;;12.90;6.70;;;;;;;;;;4956796;29;20214;-45
2023/01/16 03:41:21;;;;;;;15.73;7.97;;;;;;;;;;4956448;29;20207;-45
2023/01/16 03:43:51;;;;;;;22.47;9.27;;;;;;;;;;4957063;28;20614;-44
2023/01/16 03:46:29;;;;;;;14.37;7.20;;;;;;;;;;4956316;29;20203;-45
2023/01/16 03:49:09;;;;;;;23.57;10.47;;;;;;;;;;4956128;29;20290;-45
2023/01/16 03:51:41;;;;;;;32.80;14.77;;;;;;;;;;4957134;28;20226;-45
2023/01/16 03:54:36;;;;;;;28.47;11.73;;;;;;;;;;4956821;29;20614;-45
2023/01/16 03:57:10;;;;;;;19.33;9.67;;;;;;;;;;4956398;28;20243;-45
2023/01/16 03:59:38;;;;;;;15.80;7.63;;;;;;;;;;4956631;29;20183;-45
2023/01/16 04:02:14;;;;;;;18.20;9.90;;;;;;;;;;4957242;28;20238;-48
2023/01/16 04:05:10;;;;;;;20.77;10.93;;;;;;;;;;4957028;28;20207;-45
2023/01/16 04:07:42;;;;;;;14.90;7.67;;;;;;;;;;4955832;28;20211;-45
2023/01/16 04:10:15;;;;;;;13.90;6.07;;;;;;;;;;4956277;29;20287;-45
2023/01/16 04:12:47;;;;;;;11.57;7.00;;;;;;;;;;4956770;28;20203;-45
2023/01/16 04:15:16;;;;;;;11.53;6.90;;;;;;;;;;4957293;28;20640;-45
2023/01/16 04:17:43;;;;;;;13.93;6.40;;;;;;;;;;4955668;29;20592;-45
2023/01/16 04:20:11;;;;;;;12.73;6.50;;;;;;;;;;4955714;29;20207;-45
2023/01/16 04:22:38;;;;;;;16.77;9.33;;;;;;;;;;4956745;28;20208;-47
2023/01/16 04:25:07;;;;;;;13.23;7.80;;;;;;;;;;4956783;28;20262;-46
2023/01/16 04:27:35;;;;;;;16.70;8.27;;;;;;;;;;4955748;29;20211;-45
2023/01/16 04:30:05;;;;;;;14.53;11.27;;;;;;;;;;4957221;28;20203;-46
2023/01/16 04:32:32;;;;;;;12.33;8.17;;;;;;;;;;4956741;28;20212;-45
2023/01/16 04:35:00;;;;;;;16.80;9.80;;;;;;;;;;4956882;28;20208;-46
2023/01/16 04:37:27;;;;;;;26.23;12.07;;;;;;;;;;4956531;28;20565;-46
2023/01/16 04:39:54;;;;;;;16.33;10.17;;;;;;;;;;4956687;28;20290;-45
2023/01/16 04:42:21;;;;;;;20.07;9.83;;;;;;;;;;4956434;28;20219;-45
2023/01/16 04:44:48;;;;;;;34.00;17.30;;;;;;;;;;4956334;28;20575;-46
2023/01/16 04:47:15;;;;;;;21.40;10.43;;;;;;;;;;4962047;28;20202;-45
2023/01/16 04:49:42;;;;;;;15.80;9.63;;;;;;;;;;4975850;28;20219;-47
2023/01/16 04:52:13;;;;;;;34.13;16.90;;;;;;;;;;4974632;28;20202;-45
2023/01/16 04:54:40;;;;;;;52.00;18.07;;;;;;;;;;4975693;28;20206;-45
2023/01/16 04:57:08;;;;;;;94.83;26.63;;;;;;;;;;4975846;28;20274;-47
2023/01/16 04:59:35;;;;;;;27.63;15.73;;;;;;;;;;4975904;28;20202;-46
2023/01/16 05:02:02;;;;;;;25.87;11.10;;;;;;;;;;4975879;28;20217;-45
2023/01/16 05:04:29;;;;;;;79.27;49.10;;;;;;;;;;4955978;28;20323;-46
2023/01/16 05:06:57;;;;;;;29.60;19.90;;;;;;;;;;4964568;28;20247;-46
2023/01/16 05:09:24;;;;;;;26.03;17.30;;;;;;;;;;4977451;28;20270;-47
2023/01/16 05:11:51;;;;;;;16.40;9.70;;;;;;;;;;4965347;28;20227;-46
2023/01/16 05:14:18;;;;;;;23.57;13.87;;;;;;;;;;4967379;28;20222;-45
2023/01/16 05:16:45;;;;;;;17.97;8.20;;;;;;;;;;4974081;28;20232;-53
2023/01/16 05:19:12;;;;;;;13.20;7.77;;;;;;;;;;4958210;28;20278;-46
2023/01/16 05:21:40;;;;;;;15.83;8.77;;;;;;;;;;4959037;28;20231;-47
2023/01/16 05:24:07;;;;;;;12.27;7.27;;;;;;;;;;4957865;28;20236;-46
2023/01/16 05:26:34;;;;;;;17.13;13.43;;;;;;;;;;4959353;28;20232;-46
2023/01/16 05:29:01;;;;;;;12.90;8.53;;;;;;;;;;4958673;28;20608;-45
2023/01/16 05:31:29;;;;;;;12.23;8.40;;;;;;;;;;4959072;28;20313;-46
2023/01/16 05:33:56;;;;;;;12.57;8.10;;;;;;;;;;4957960;28;20249;-45
2023/01/16 05:36:23;;;;;;;13.00;8.57;;;;;;;;;;4958027;28;20231;-46
2023/01/16 05:38:50;;;;;;;13.33;8.20;;;;;;;;;;4958297;28;20223;-46
2023/01/16 05:41:18;;;;;;;13.40;8.60;;;;;;;;;;4964696;28;20214;-45
2023/01/16 05:43:45;;;;;;;12.87;8.77;;;;;;;;;;4977757;28;20230;-46
2023/01/16 05:46:12;;;;;;;13.73;9.13;;;;;;;;;;4958304;28;20227;-45
2023/01/16 05:48:40;;;;;;;27.93;16.47;;;;;;;;;;4958982;28;20218;-45
2023/01/16 05:51:07;;;;;;;18.43;10.47;;;;;;;;;;4957770;28;20282;-46
2023/01/16 05:53:34;;;;;;;14.83;10.17;;;;;;;;;;4956966;28;20267;-47
2023/01/16 05:56:07;;;;;;;12.10;9.03;;;;;;;;;;4956660;28;20629;-47
2023/01/16 05:58:34;;;;;;;14.03;9.77;;;;;;;;;;4956888;28;20231;-47
2023/01/16 06:01:02;;;;;;;14.17;9.37;;;;;;;;;;4957268;28;20246;-49
2023/01/16 06:03:29;;;;;;;15.00;8.63;;;;;;;;;;4956755;28;20712;-45
2023/01/16 06:05:58;;;;;;;17.93;9.40;;;;;;;;;;4957625;28;20649;-46
2023/01/16 06:08:26;;;;;;;14.67;9.07;;;;;;;;;;4958649;28;20203;-45
2023/01/16 06:10:53;;;;;;;16.87;10.07;;;;;;;;;;4972674;28;20206;-46
2023/01/16 06:13:20;;;;;;;16.07;10.47;;;;;;;;;;4959175;28;20200;-47
2023/01/16 06:15:47;;;;;;;14.20;9.27;;;;;;;;;;4958015;28;20531;-48
2023/01/16 06:18:14;;;;;;;15.53;9.73;;;;;;;;;;4958452;28;20234;-46
2023/01/16 06:20:42;;;;;;;18.50;10.77;;;;;;;;;;4957733;28;20637;-45
2023/01/16 06:23:09;;;;;;;13.27;9.63;;;;;;;;;;4958933;28;20226;-47
2023/01/16 06:25:37;;;;;;;17.40;10.40;;;;;;;;;;4958389;29;20533;-46
2023/01/16 06:28:04;;;;;;;21.07;11.80;;;;;;;;;;4958608;28;20203;-48
2023/01/16 06:30:31;;;;;;;17.27;10.77;;;;;;;;;;4957924;28;20208;-45
2023/01/16 06:32:58;;;;;;;16.73;10.67;;;;;;;;;;4958289;28;20211;-45
2023/01/16 06:35:25;;;;;;;30.47;20.47;;;;;;;;;;4966854;28;20273;-45
2023/01/16 06:37:52;;;;;;;35.73;20.50;;;;;;;;;;4977354;28;20290;-48
2023/01/16 06:40:20;;;;;;;30.23;19.57;;;;;;;;;;4977206;28;20230;-47
2023/01/16 06:42:47;;;;;;;21.10;14.30;;;;;;;;;;4964446;28;20298;-48
2023/01/16 06:45:14;;;;;;;26.30;18.77;;;;;;;;;;4957982;28;20250;-49
2023/01/16 06:47:41;;;;;;;38.20;17.40;;;;;;;;;;4957950;28;20218;-46
2023/01/16 06:50:09;;;;;;;27.23;19.80;;;;;;;;;;4957554;28;20692;-46
2023/01/16 06:52:37;;;;;;;19.40;13.53;;;;;;;;;;4957571;28;20211;-46
2023/01/16 06:55:05;;;;;;;16.20;10.70;;;;;;;;;;4957781;28;20518;-46
2023/01/16 06:57:35;;;;;;;15.93;10.13;;;;;;;;;;4957611;28;20236;-50
2023/01/16 07:00:04;;;;;;;17.77;10.60;;;;;;;;;;4957739;28;20203;-48
2023/01/16 07:02:31;;;;;;;62.90;39.77;;;;;;;;;;4957492;28;20259;-48
2023/01/16 07:04:59;;;;;;;33.53;18.57;;;;;;;;;;4956915;28;20278;-47
2023/01/16 07:07:26;;;;;;;41.37;22.47;;;;;;;;;;4957448;28;20645;-47
2023/01/16 07:09:53;;;;;;;25.57;14.17;;;;;;;;;;4957680;28;20659;-46
2023/01/16 07:12:21;;;;;;;42.07;18.93;;;;;;;;;;4956948;28;20547;-46
2023/01/16 07:23:19;;;;;;;25.33;16.87;;;;;;;;;;4973684;28;20190;-47
2023/01/16 07:25:46;;;;;;;46.93;26.50;;;;;;;;;;4987563;28;20192;-47
2023/01/16 07:28:14;;;;;;;25.53;16.83;;;;;;;;;;4975267;28;20588;-47
2023/01/16 07:30:43;;;;;;;28.20;17.97;;;;;;;;;;4971717;28;20211;-46
2023/01/16 07:33:11;;;;;;;28.50;16.63;;;;;;;;;;4982281;28;20644;-46
2023/01/16 07:35:38;;;;;;;35.27;19.67;;;;;;;;;;4974586;28;20210;-46
2023/01/16 07:38:05;;;;;;;34.90;20.10;;;;;;;;;;4975105;28;20230;-49
2023/01/16 07:40:32;;;;;;;34.13;20.67;;;;;;;;;;4974017;28;20221;-46
2023/01/16 07:42:59;;;;;;;78.80;29.53;;;;;;;;;;4959622;28;20245;-47
2023/01/16 07:45:27;;;;;;;83.33;40.40;;;;;;;;;;4971787;28;20223;-46
2023/01/16 07:47:54;;;;;;;34.50;20.37;;;;;;;;;;4958263;28;20219;-46
2023/01/16 07:50:21;;;;;;;37.50;23.07;;;;;;;;;;4973998;28;20218;-47
2023/01/16 07:52:50;;;;;;;34.77;18.83;;;;;;;;;;4969792;28;20194;-47
2023/01/16 07:55:18;;;;;;;28.57;17.47;;;;;;;;;;4973699;28;20207;-50
2023/01/16 07:57:45;;;;;;;27.67;17.23;;;;;;;;;;4959375;28;20692;-48
2023/01/16 08:00:13;;;;;;;26.87;17.70;;;;;;;;;;4974633;28;20202;-48
2023/01/16 08:02:41;;;;;;;29.13;17.30;;;;;;;;;;4974592;28;20199;-46
2023/01/16 08:05:10;;;;;;;30.23;19.23;;;;;;;;;;4974626;28;21567;-47
2023/01/16 08:07:37;;;;;;;46.33;26.43;;;;;;;;;;4967798;28;20199;-46
2023/01/16 08:10:05;;;;;;;29.40;18.70;;;;;;;;;;4974565;28;20277;-47
2023/01/16 08:12:32;;;;;;;41.27;32.30;;;;;;;;;;4971254;28;20261;-47
2023/01/16 08:14:59;;;;;;;26.73;18.13;;;;;;;;;;4974570;28;20639;-45
2023/01/16 08:17:26;;;;;;;26.63;18.53;;;;;;;;;;4970912;28;20242;-46
2023/01/16 08:19:54;;;;;;;65.43;31.30;;;;;;;;;;4974604;28;20207;-47
2023/01/16 08:22:21;;;;;;;158.33;74.77;;;;;;;;;;4970625;28;20201;-47
2023/01/16 08:24:48;;;;;;;229.97;117.10;;;;;;;;;;4973975;28;20202;-46
2023/01/16 08:27:15;;;;;;;225.30;131.33;;;;;;;;;;4971038;28;20207;-47
2023/01/16 08:29:43;;;;;;;180.77;93.97;;;;;;;;;;4974134;28;20190;-46
2023/01/16 08:32:10;;;;;;;88.03;48.13;;;;;;;;;;4965015;28;20199;-47
2023/01/16 08:34:37;;;;;;;113.60;59.30;;;;;;;;;;4973949;28;20277;-48
2023/01/16 08:37:06;;;;;;;52.17;32.17;;;;;;;;;;4963157;28;20203;-50
2023/01/16 08:39:33;;;;;;;49.23;35.30;;;;;;;;;;4957084;28;20240;-47
2023/01/16 08:53:04;;;;;;;37.43;24.53;;;;;;;;;;4979268;28;20261;-47
2023/01/16 08:55:32;;;;;;;82.20;52.80;;;;;;;;;;4962853;28;20287;-47
2023/01/16 08:57:59;;;;;;;84.90;54.40;;;;;;;;;;4972397;28;20239;-47
2023/01/16 09:00:28;;;;;;;24.70;16.27;;;;;;;;;;4960328;28;20637;-48
2023/01/16 09:02:58;;;;;;;33.53;18.17;;;;;;;;;;4963711;28;20273;-48
2023/01/16 09:05:26;;;;;;;22.57;13.17;;;;;;;;;;4975140;28;20198;-46
2023/01/16 09:07:54;;;;;;;23.07;16.57;;;;;;;;;;4965093;28;20222;-46
2023/01/16 09:10:21;;;;;;;43.43;28.60;;;;;;;;;;4969621;28;20207;-51
2023/01/16 09:15:34;;;;;;;84.10;49.17;;;;;;;;;;4962123;28;20565;-47
2023/01/16 09:18:01;;;;;;;101.00;56.33;;;;;;;;;;4972209;28;20223;-47
2023/01/16 09:20:29;;;;;;;62.37;38.63;;;;;;;;;;4961492;28;20625;-47
2023/01/16 09:23:01;;;;;;;63.37;41.57;;;;;;;;;;4977791;28;20210;-46
2023/01/16 09:25:29;;;;;;;45.30;28.63;;;;;;;;;;4977174;28;20195;-47
2023/01/16 09:27:56;;;;;;;59.50;35.90;;;;;;;;;;4972404;28;20214;-46
2023/01/16 09:30:24;;;;;;;110.50;59.03;;;;;;;;;;4968147;28;20203;-46
2023/01/16 09:32:51;;;;;;;62.33;35.13;;;;;;;;;;4964949;28;20203;-46
2023/01/16 09:35:18;;;;;;;80.30;44.90;;;;;;;;;;4974705;28;20652;-46
2023/01/16 09:37:45;;;;;;;16.17;11.97;;;;;;;;;;4963208;28;20261;-47
2023/01/16 09:40:18;;;;;;;46.17;23.23;;;;;;;;;;4970082;28;20560;-46
2023/01/16 09:45:38;;;;;;;55.43;32.57;;;;;;;;;;4987621;28;20195;-46
2023/01/16 09:48:12;;;;;;;38.17;22.50;;;;;;;;;;4971176;28;20230;-46
2023/01/16 09:50:51;;;;;;;18.80;11.47;;;;;;;;;;4969321;28;20214;-47
2023/01/16 09:59:37;;;;;;;84.33;55.63;;;;;;;;;;4974036;28;20218;-46
2023/01/16 10:02:14;;;;;;;145.10;35.23;;;;;;;;;;4965532;28;20514;-47
2023/01/16 10:04:42;;;;;;;37.03;28.77;;;;;;;;;;4965156;28;20217;-46
2023/01/16 10:07:18;;;;;;;31.67;19.57;;;;;;;;;;4972681;28;20202;-47
2023/01/16 10:10:12;;;;;;;37.30;17.80;;;;;;;;;;4962763;28;20203;-46
2023/01/16 10:12:50;;;;;;;31.03;14.17;;;;;;;;;;4970969;28;20637;-46
2023/01/16 10:15:26;;;;;;;43.33;30.33;;;;;;;;;;4989317;28;20632;-46
2023/01/16 10:18:41;;;;;;;25.23;15.83;;;;;;;;;;4970987;28;20192;-46
2023/01/16 10:21:11;;;;;;;29.43;13.07;;;;;;;;;;4966536;28;20215;-44
2023/01/16 10:23:47;;;;;;;39.07;15.20;;;;;;;;;;4958430;28;20199;-44
2023/01/16 10:26:23;;;;;;;66.87;32.03;;;;;;;;;;4958514;28;20250;-45
2023/01/16 10:29:02;;;;;;;41.13;21.97;;;;;;;;;;4957731;28;20207;-46
2023/01/16 10:31:43;;;;;;;116.30;62.00;;;;;;;;;;4958247;28;20210;-45
2023/01/16 10:34:47;;;;;;;126.87;70.23;;;;;;;;;;4958724;28;20206;-44
2023/01/16 10:37:14;;;;;;;73.77;34.37;;;;;;;;;;4957566;29;20294;-44
2023/01/16 10:39:42;;;;;;;58.53;25.03;;;;;;;;;;4957950;28;20739;-46
2023/01/16 10:50:37;;;;;;;28.50;13.93;;;;;;;;;;4957861;29;20207;-44
2023/01/16 10:53:05;;;;;;;18.87;11.30;;;;;;;;;;4956875;28;20654;-45
2023/01/16 10:55:35;;;;;;;42.57;27.07;;;;;;;;;;4958771;28;20210;-46
2023/01/16 10:58:28;;;;;;;37.93;18.10;;;;;;;;;;4976387;28;20277;-46
2023/01/16 11:01:13;;;;;;;159.47;69.43;;;;;;;;;;4956455;28;20227;-44
2023/01/16 11:04:00;;;;;;;55.00;41.23;;;;;;;;;;4988128;28;20325;-48
2023/01/16 11:06:29;;;;;;;46.83;24.67;;;;;;;;;;4965584;28;20230;-46
2023/01/16 11:09:04;;;;;;;58.20;24.63;;;;;;;;;;4963072;28;20231;-46
2023/01/16 11:20:21;;;;;;;38.03;18.23;;;;;;;;;;4976100;28;20238;-47
2023/01/16 11:22:57;;;;;;;32.90;16.33;;;;;;;;;;4975746;28;20226;-47
2023/01/16 11:25:25;;;;;;;83.73;37.43;;;;;;;;;;4975456;28;20238;-51
2023/01/16 11:27:55;;;;;;;109.97;34.60;;;;;;;;;;4975704;28;20227;-47
2023/01/16 11:30:34;;;;;;;157.70;64.50;;;;;;;;;;4975143;28;20237;-50
2023/01/16 11:33:07;;;;;;;117.20;51.87;;;;;;;;;;4973672;28;20272;-46
2023/01/16 11:35:35;;;;;;;41.23;22.83;;;;;;;;;;4955408;29;20233;-46
2023/01/16 11:38:04;;;;;;;32.70;15.90;;;;;;;;;;4959860;28;20223;-47
2023/01/16 11:40:35;;;;;;;80.83;32.57;;;;;;;;;;4973934;28;20684;-48
2023/01/16 11:46:03;;;;;;;50.60;23.37;;;;;;;;;;4974050;28;20229;-50
2023/01/16 11:48:37;;;;;;;59.67;28.50;;;;;;;;;;4967470;28;20231;-47
2023/01/16 11:51:06;;;;;;;52.70;24.93;;;;;;;;;;4956102;28;20681;-47
2023/01/16 11:53:34;;;;;;;171.23;54.10;;;;;;;;;;4954961;28;20223;-47
2023/01/16 11:56:29;;;;;;;58.77;26.17;;;;;;;;;;4955701;28;20227;-46
2023/01/16 11:59:38;;;;;;;125.07;48.20;;;;;;;;;;4966089;28;20269;-47
2023/01/16 12:02:24;;;;;;;46.53;35.27;;;;;;;;;;4975369;28;20242;-48
2023/01/16 12:08:21;;;;;;;69.70;25.93;;;;;;;;;;4975043;28;20289;-47
2023/01/16 12:11:04;;;;;;;38.70;18.67;;;;;;;;;;4974850;28;20231;-47
2023/01/16 12:16:32;;;;;;;34.23;17.23;;;;;;;;;;4974700;28;20297;-47
2023/01/16 12:19:27;;;;;;;29.27;14.80;;;;;;;;;;4974889;28;20234;-47
2023/01/16 12:22:00;;;;;;;33.57;18.50;;;;;;;;;;4975368;28;20241;-48
2023/01/16 12:24:35;;;;;;;85.23;34.23;;;;;;;;;;4973774;28;20691;-46
2023/01/16 12:27:11;;;;;;;79.77;28.67;;;;;;;;;;4974904;28;20218;-47
2023/01/16 12:29:50;;;;;;;110.53;65.50;;;;;;;;;;4974341;28;20219;-47
2023/01/16 12:32:38;;;;;;;37.77;27.97;;;;;;;;;;4975384;28;20242;-48
2023/01/16 12:35:36;;;;;;;63.63;29.17;;;;;;;;;;4973549;28;20254;-50
2023/01/16 12:38:12;;;;;;;63.23;25.33;;;;;;;;;;4973801;28;20360;-50
2023/01/16 12:44:05;;;;;;;51.13;26.13;;;;;;;;;;4955558;28;20257;-47
2023/01/16 12:46:58;;;;;;;42.00;23.20;;;;;;;;;;4954435;28;20687;-45
2023/01/16 12:49:33;;;;;;;49.47;27.17;;;;;;;;;;4956638;28;20243;-47
2023/01/16 12:52:12;;;;;;;193.33;90.17;;;;;;;;;;4955950;28;20261;-45
2023/01/16 12:55:11;;;;;;;66.17;31.60;;;;;;;;;;4953744;28;20684;-45
2023/01/16 12:57:56;;;;;;;82.20;26.10;;;;;;;;;;4960725;28;20235;-52
2023/01/16 13:00:27;;;;;;;74.50;54.60;;;;;;;;;;4954638;28;20590;-51
2023/01/16 13:02:59;;;;;;;25.23;18.73;;;;;;;;;;4953663;28;20227;-47
2023/01/16 13:05:30;;;;;;;32.70;19.97;;;;;;;;;;4954940;28;20565;-51
2023/01/16 13:08:02;;;;;;;76.60;27.53;;;;;;;;;;4972687;28;20305;-46
2023/01/16 13:13:25;;;;;;;33.87;18.10;;;;;;;;;;4970636;28;20298;-46
2023/01/16 13:15:59;;;;;;;36.33;18.60;;;;;;;;;;4972467;28;20222;-46
2023/01/16 13:18:34;;;;;;;51.10;23.63;;;;;;;;;;4973075;28;20215;-46
2023/01/16 13:21:03;;;;;;;60.83;29.27;;;;;;;;;;4980523;28;20669;-46
2023/01/16 13:23:40;;;;;;;72.97;38.70;;;;;;;;;;4972496;28;20521;-46
2023/01/16 13:26:10;;;;;;;73.37;31.07;;;;;;;;;;4962346;28;20532;-48
2023/01/16 13:28:45;;;;;;;81.47;46.77;;;;;;;;;;4987456;28;20247;-48
2023/01/16 13:31:40;;;;;;;38.23;25.70;;;;;;;;;;4976974;28;20229;-47
2023/01/16 13:34:29;;;;;;;40.97;25.23;;;;;;;;;;4963494;28;20230;-47
2023/01/16 13:37:24;;;;;;;60.00;26.87;;;;;;;;;;4957408;29;20575;-46
2023/01/16 13:40:04;;;;;;;43.93;21.93;;;;;;;;;;4962515;28;20647;-47
2023/01/16 13:42:33;;;;;;;40.70;21.47;;;;;;;;;;4959919;28;20227;-48
2023/01/16 13:47:52;;;;;;;44.40;24.10;;;;;;;;;;4977549;28;20670;-46
2023/01/16 13:50:30;;;;;;;41.67;18.83;;;;;;;;;;4976729;28;20241;-47
2023/01/16 13:53:01;;;;;;;35.90;20.60;;;;;;;;;;4976675;28;20226;-50
2023/01/16 13:55:34;;;;;;;52.87;21.20;;;;;;;;;;4974581;28;20687;-49
2023/01/16 13:58:29;;;;;;;55.30;38.53;;;;;;;;;;4964008;28;20250;-47
2023/01/16 14:01:01;;;;;;;40.03;25.77;;;;;;;;;;4970395;28;20238;-49
2023/01/16 14:03:30;;;;;;;34.70;21.27;;;;;;;;;;4976242;28;20265;-49
2023/01/16 14:06:09;;;;;;;37.37;22.33;;;;;;;;;;4976970;28;20233;-48
2023/01/16 14:09:10;;;;;;;29.23;17.30;;;;;;;;;;4976421;28;20245;-47
2023/01/16 14:11:39;;;;;;;29.87;17.73;;;;;;;;;;4965754;28;20655;-47
2023/01/16 14:16:30;;;;;;;33.37;20.43;;;;;;;;;;4958002;28;20242;-49
2023/01/16 14:17:05;;;;;;;242.67;113.80;;;;;;;;;;4957301;28;20258;-47
2023/01/16 14:19:38;;;;;;;38.83;23.50;;;;;;;;;;4962580;28;20624;-48
2023/01/16 14:24:00;;;;;;;276.93;109.70;;;;;;;;;;4976183;28;20234;-49
2023/01/16 14:24:57;;;;;;;129.77;54.07;;;;;;;;;;4974198;28;20241;-49
2023/01/16 14:27:32;;;;;;;205.63;88.43;;;;;;;;;;4955880;28;20255;-47
2023/01/16 14:30:02;;;;;;;84.23;36.57;;;;;;;;;;4966210;28;20226;-48
2023/01/16 14:32:30;;;;;;;96.00;38.67;;;;;;;;;;4975957;28;20763;-53
2023/01/16 14:34:59;;;;;;;111.90;38.13;;;;;;;;;;4976192;28;20226;-53
2023/01/16 14:37:29;;;;;;;76.87;29.30;;;;;;;;;;4975595;28;20678;-48
2023/01/16 14:39:58;;;;;;;40.63;18.23;;;;;;;;;;4974118;28;20242;-46
2023/01/16 14:57:12;;;;;;;133.57;58.43;;;;;;;;;;4956369;28;20231;-48
2023/01/16 14:59:54;;;;;;;66.57;32.03;;;;;;;;;;4957208;28;20285;-46
2023/01/16 15:02:33;;;;;;;30.17;16.17;;;;;;;;;;4956435;28;20286;-49
2023/01/16 15:05:03;;;;;;;62.07;24.87;;;;;;;;;;4957872;28;20309;-47
2023/01/16 15:07:32;;;;;;;41.77;17.53;;;;;;;;;;4960311;28;20259;-49
2023/01/16 15:10:07;;;;;;;29.77;12.43;;;;;;;;;;4956271;28;20235;-47
2023/01/16 15:12:42;;;;;;;31.97;15.03;;;;;;;;;;4956483;28;20730;-47
2023/01/16 15:15:22;;;;;;;22.20;11.77;;;;;;;;;;4958823;28;20219;-46
2023/01/16 15:23:31;;;;;;;43.83;16.90;;;;;;;;;;4974423;28;20253;-48
2023/01/16 15:26:04;;;;;;;66.37;31.00;;;;;;;;;;4974464;28;20233;-46
2023/01/16 15:28:43;;;;;;;23.47;15.53;;;;;;;;;;4971694;28;20313;-47
2023/01/16 15:31:14;;;;;;;31.23;18.67;;;;;;;;;;4961171;28;20274;-46
2023/01/16 15:33:50;;;;;;;23.60;11.60;;;;;;;;;;4956226;28;20231;-51
2023/01/16 15:36:26;;;;;;;41.37;14.60;;;;;;;;;;4965930;28;20241;-47
2023/01/16 15:38:55;;;;;;;34.33;14.10;;;;;;;;;;4974915;28;20237;-47
2023/01/16 15:46:32;;;;;;;32.97;14.83;;;;;;;;;;4966896;28;20231;-49
2023/01/16 15:47:40;;;;;;;33.60;14.00;;;;;;;;;;4955449;28;20265;-46
2023/01/16 15:50:13;;;;;;;108.33;45.73;;;;;;;;;;4965289;28;20798;-50
2023/01/16 15:52:40;;;;;;;76.47;27.53;;;;;;;;;;4967176;28;20231;-47
2023/01/16 15:55:24;;;;;;;89.37;30.03;;;;;;;;;;4956308;28;20231;-47
2023/01/16 15:58:14;;;;;;;60.77;30.30;;;;;;;;;;4956121;28;20235;-46
2023/01/16 16:00:42;;;;;;;66.20;25.60;;;;;;;;;;4960012;28;20230;-47
2023/01/16 16:03:21;;;;;;;176.80;49.93;;;;;;;;;;4969428;28;20222;-47
2023/01/16 16:05:52;;;;;;;128.00;40.57;;;;;;;;;;4960333;28;20232;-46
2023/01/16 16:08:39;;;;;;;108.50;38.63;;;;;;;;;;4974485;28;20243;-53
2023/01/16 16:13:55;;;;;;;127.70;49.93;;;;;;;;;;4955133;28;20231;-45
2023/01/16 16:19:30;;;;;;;72.87;31.80;;;;;;;;;;4972329;28;20230;-45
2023/01/16 16:24:47;;;;;;;113.97;43.60;;;;;;;;;;4972019;28;20739;-45
2023/01/16 16:27:16;;;;;;;65.53;30.43;;;;;;;;;;4974294;28;20280;-48
2023/01/16 16:29:50;;;;;;;64.47;32.07;;;;;;;;;;4972814;28;20230;-45
2023/01/16 16:32:18;;;;;;;77.33;35.43;;;;;;;;;;4973432;28;20690;-46
2023/01/16 16:34:55;;;;;;;65.83;29.30;;;;;;;;;;4973732;28;20288;-45